Time;durP1;ratioP1;P1;durP2;ratioP2;P2;SDS_P1;SDS_P2;PMS_P1;PMS_P2;Temp;Humidity;BMP_temperature;BMP_pressure;BME280_temperature;BME280_humidity;BME280_pressure;Samples;Min_cycle;Max_cycle;Signal;HPM_P1;HPM_P2
2023/03/10 00:01:31;;;;;;;1.73;0.60;;;11.30;99.90;;;;;;5072798;28;20055;-64
2023/03/10 00:03:59;;;;;;;1.80;0.50;;;11.40;99.90;;;;;;5072951;28;20071;-62
2023/03/10 00:06:27;;;;;;;0.82;0.45;;;11.30;99.90;;;;;;5071355;28;20025;-63
2023/03/10 00:08:53;;;;;;;2.22;0.57;;;11.40;99.90;;;;;;5072590;28;20427;-63
2023/03/10 00:11:19;;;;;;;1.98;0.50;;;11.50;99.90;;;;;;5072848;28;20028;-63
2023/03/10 00:13:45;;;;;;;0.65;0.40;;;11.40;99.90;;;;;;5074938;28;20028;-63
2023/03/10 00:16:25;;;;;;;1.07;0.50;;;11.40;99.90;;;;;;5075546;28;20021;-63
2023/03/10 00:18:51;;;;;;;1.30;0.82;;;11.30;99.90;;;;;;5076384;28;20027;-64
2023/03/10 00:21:20;;;;;;;0.85;0.40;;;11.30;99.90;;;;;;5076485;28;20017;-63
2023/03/10 00:23:46;;;;;;;1.23;0.50;;;11.20;99.90;;;;;;5076539;28;20039;-63
2023/03/10 00:26:13;;;;;;;2.45;0.60;;;11.20;99.90;;;;;;5076571;28;20024;-63
2023/03/10 00:28:40;;;;;;;2.05;0.73;;;11.10;99.90;;;;;;5076390;28;20143;-63
2023/03/10 00:31:09;;;;;;;1.33;0.50;;;11.00;99.90;;;;;;5076361;28;20020;-62
2023/03/10 00:33:35;;;;;;;1.23;0.50;;;10.90;99.90;;;;;;5076061;28;20028;-63
2023/03/10 00:36:08;;;;;;;1.57;0.50;;;10.90;99.90;;;;;;5076157;28;20048;-63
2023/03/10 00:38:35;;;;;;;1.27;0.60;;;10.80;99.90;;;;;;5076503;28;20021;-63
2023/03/10 00:41:03;;;;;;;3.13;0.52;;;10.80;99.90;;;;;;5076053;28;20032;-63
2023/03/10 00:43:29;;;;;;;1.73;0.60;;;10.70;99.90;;;;;;5077763;28;20040;-63
2023/03/10 00:45:55;;;;;;;1.80;0.73;;;10.70;99.90;;;;;;5080020;28;20032;-61
2023/03/10 00:48:21;;;;;;;2.20;0.50;;;10.70;99.90;;;;;;5075875;28;20435;-59
2023/03/10 00:50:47;;;;;;;1.00;0.45;;;10.70;99.90;;;;;;5076063;28;20606;-62
2023/03/10 00:53:12;;;;;;;2.13;0.68;;;10.60;99.90;;;;;;5076490;28;20032;-64
2023/03/10 00:55:38;;;;;;;2.20;0.90;;;10.50;99.90;;;;;;5075976;28;20032;-61
2023/03/10 00:58:04;;;;;;;2.53;0.60;;;10.50;99.90;;;;;;5076023;28;20616;-61
2023/03/10 01:00:29;;;;;;;3.33;0.60;;;10.40;99.90;;;;;;5075994;28;20743;-62
2023/03/10 01:02:55;;;;;;;1.97;0.70;;;10.30;99.90;;;;;;5075662;28;20017;-63
2023/03/10 01:05:20;;;;;;;4.00;0.70;;;10.30;99.90;;;;;;5075463;28;20020;-61
2023/03/10 01:07:46;;;;;;;3.13;0.83;;;10.20;99.90;;;;;;5076370;28;20036;-63
2023/03/10 01:10:12;;;;;;;0.83;0.60;;;10.20;99.90;;;;;;5075856;28;20407;-61
2023/03/10 01:12:37;;;;;;;1.15;0.63;;;10.20;99.90;;;;;;5075536;28;20036;-63
2023/03/10 01:15:04;;;;;;;1.48;0.80;;;10.10;99.90;;;;;;5075676;28;20024;-63
2023/03/10 01:17:30;;;;;;;1.13;0.60;;;10.00;99.90;;;;;;5075774;28;20024;-61
2023/03/10 01:19:56;;;;;;;1.58;0.90;;;10.00;99.90;;;;;;5075290;28;20386;-61
2023/03/10 01:22:21;;;;;;;4.37;0.90;;;10.10;99.90;;;;;;5075566;28;20045;-63
2023/03/10 01:24:47;;;;;;;1.75;0.90;;;10.00;99.90;;;;;;5074965;28;20044;-63
2023/03/10 01:27:12;;;;;;;3.47;0.70;;;10.00;99.90;;;;;;5075751;28;20132;-61
2023/03/10 01:29:38;;;;;;;4.53;0.90;;;10.00;99.90;;;;;;5075791;28;20040;-61
2023/03/10 01:32:04;;;;;;;3.07;0.70;;;10.10;99.90;;;;;;5075366;28;20029;-61
2023/03/10 01:34:29;;;;;;;4.85;0.80;;;10.10;99.90;;;;;;5074970;28;20016;-61
2023/03/10 01:36:55;;;;;;;4.10;0.90;;;10.00;99.90;;;;;;5075523;28;20059;-61
2023/03/10 01:39:20;;;;;;;2.27;1.23;;;10.00;99.90;;;;;;5075665;28;20021;-62
2023/03/10 01:41:46;;;;;;;2.30;0.83;;;10.00;99.90;;;;;;5075076;28;20032;-61
2023/03/10 01:44:22;;;;;;;1.23;0.63;;;10.00;99.90;;;;;;5075244;28;20040;-62
2023/03/10 01:46:50;;;;;;;3.23;1.40;;;10.00;99.90;;;;;;5073736;28;20036;-62
2023/03/10 01:49:40;;;;;;;3.90;1.13;;;10.00;99.90;;;;;;5074944;28;20029;-62
2023/03/10 01:52:16;;;;;;;4.57;1.08;;;10.00;99.90;;;;;;5074855;28;20029;-62
2023/03/10 01:54:50;;;;;;;2.95;0.90;;;10.00;99.90;;;;;;5075298;28;20016;-61
2023/03/10 01:57:20;;;;;;;4.53;1.17;;;9.90;99.90;;;;;;5073750;28;20071;-61
2023/03/10 01:59:47;;;;;;;4.47;1.00;;;9.90;99.90;;;;;;5075236;28;20016;-62
2023/03/10 02:02:12;;;;;;;;;;;10.00;99.90;;;;;;5075276;28;20047;-62
2023/03/10 02:04:47;;;;;;;3.80;1.08;;;10.00;99.90;;;;;;5074732;28;19915;-62
2023/03/10 02:07:15;;;;;;;4.18;1.05;;;10.10;99.90;;;;;;5074813;28;20029;-62
2023/03/10 02:09:43;;;;;;;2.97;1.00;;;10.10;99.90;;;;;;5074775;28;20028;-63
2023/03/10 02:12:10;;;;;;;5.22;1.02;;;10.10;99.90;;;;;;5074826;28;20112;-63
2023/03/10 02:14:36;;;;;;;3.45;0.93;;;10.10;99.90;;;;;;5075173;28;20025;-63
2023/03/10 02:17:07;;;;;;;1.55;0.85;;;10.10;99.90;;;;;;5075428;28;20107;-62
2023/03/10 02:19:57;;;;;;;2.85;1.20;;;10.20;99.90;;;;;;5073057;28;20568;-62
2023/03/10 02:22:23;;;;;;;4.72;0.95;;;10.20;99.90;;;;;;5074202;28;20025;-62
2023/03/10 02:24:59;;;;;;;3.38;0.65;;;10.30;99.90;;;;;;5074435;28;20024;-62
2023/03/10 02:27:35;;;;;;;2.53;1.23;;;10.40;99.90;;;;;;5074441;28;20123;-62
2023/03/10 02:30:08;;;;;;;3.00;0.85;;;10.30;99.90;;;;;;5074189;28;20017;-63
2023/03/10 02:32:41;;;;;;;3.53;0.80;;;10.30;99.90;;;;;;5074185;28;20031;-63
2023/03/10 02:35:08;;;;;;;1.98;0.73;;;10.30;99.90;;;;;;5073997;28;20028;-63
2023/03/10 02:37:35;;;;;;;3.38;0.90;;;10.30;99.90;;;;;;5075958;28;20021;-64
2023/03/10 02:40:01;;;;;;;1.25;0.60;;;10.40;99.90;;;;;;5074728;28;20030;-63
2023/03/10 02:42:34;;;;;;;3.22;1.05;;;10.40;99.90;;;;;;5073003;28;20146;-65
2023/03/10 02:45:01;;;;;;;5.80;0.98;;;10.40;99.90;;;;;;5075624;28;20021;-63
2023/03/10 02:47:27;;;;;;;2.15;0.65;;;10.40;99.90;;;;;;5073953;28;20025;-62
2023/03/10 02:49:52;;;;;;;2.60;0.70;;;10.50;99.90;;;;;;5073671;28;20025;-63
2023/03/10 02:52:42;;;;;;;1.87;0.60;;;10.50;99.90;;;;;;5073839;28;20169;-62
2023/03/10 02:55:13;;;;;;;3.03;0.80;;;10.50;99.90;;;;;;5074198;28;20474;-63
2023/03/10 02:57:39;;;;;;;2.13;0.68;;;10.50;99.90;;;;;;5073949;28;20078;-63
2023/03/10 03:00:07;;;;;;;1.80;0.57;;;10.60;99.90;;;;;;5073665;28;20028;-63
2023/03/10 03:02:32;;;;;;;2.33;0.65;;;10.60;99.90;;;;;;5074915;28;20081;-63
2023/03/10 03:04:58;;;;;;;2.00;0.63;;;10.70;99.90;;;;;;5073620;28;20028;-61
2023/03/10 03:07:23;;;;;;;2.70;0.83;;;10.70;99.90;;;;;;5074756;28;20024;-62
2023/03/10 03:09:49;;;;;;;1.00;0.50;;;10.70;99.90;;;;;;5074253;28;20393;-61
2023/03/10 03:12:14;;;;;;;2.60;0.60;;;10.70;99.90;;;;;;5074351;28;20024;-59
2023/03/10 03:14:40;;;;;;;3.83;0.90;;;10.70;99.90;;;;;;5074008;28;20107;-61
2023/03/10 03:17:07;;;;;;;3.77;0.87;;;10.70;99.90;;;;;;5073491;28;20017;-62
2023/03/10 03:19:32;;;;;;;;;;;10.70;99.90;;;;;;5073752;28;20103;-62
2023/03/10 03:21:57;;;;;;;1.80;0.80;;;10.80;99.90;;;;;;5073989;28;19958;-62
2023/03/10 03:24:23;;;;;;;3.00;0.67;;;10.80;99.90;;;;;;5072554;28;20020;-63
2023/03/10 03:26:49;;;;;;;1.47;0.50;;;10.80;99.90;;;;;;5072114;28;20169;-62
2023/03/10 03:29:14;;;;;;;1.77;0.70;;;10.80;99.90;;;;;;5073664;28;20032;-62
2023/03/10 03:31:40;;;;;;;2.20;0.80;;;10.70;99.90;;;;;;5074140;28;20097;-62
2023/03/10 03:34:06;;;;;;;2.00;0.70;;;10.70;99.90;;;;;;5079157;28;20020;-64
2023/03/10 03:36:32;;;;;;;2.25;0.70;;;10.70;99.90;;;;;;5079868;28;20063;-64
2023/03/10 03:38:58;;;;;;;3.30;0.60;;;10.80;99.90;;;;;;5080884;28;20028;-62
2023/03/10 03:41:23;;;;;;;1.93;0.80;;;10.70;99.90;;;;;;5081419;28;20025;-63
2023/03/10 03:43:49;;;;;;;3.00;0.63;;;10.70;99.90;;;;;;5081394;28;20036;-62
2023/03/10 03:46:14;;;;;;;2.80;0.60;;;10.70;99.90;;;;;;5080659;28;20028;-64
2023/03/10 03:48:40;;;;;;;1.63;0.70;;;10.70;99.90;;;;;;5076567;28;20064;-62
2023/03/10 03:51:05;;;;;;;3.87;0.77;;;10.60;99.90;;;;;;5073837;28;20165;-62
2023/03/10 03:53:32;;;;;;;1.77;0.60;;;10.60;99.90;;;;;;5072308;28;20028;-62
2023/03/10 03:55:58;;;;;;;1.60;0.40;;;10.60;99.90;;;;;;5073297;28;20060;-60
2023/03/10 03:58:24;;;;;;;1.43;0.70;;;10.70;99.90;;;;;;5074083;28;20025;-62
2023/03/10 04:00:49;;;;;;;1.92;0.73;;;10.80;99.90;;;;;;5073481;28;20370;-63
2023/03/10 04:03:15;;;;;;;2.42;0.70;;;10.70;99.90;;;;;;5074576;28;20056;-63
2023/03/10 04:05:40;;;;;;;1.20;0.53;;;10.80;99.90;;;;;;5074706;28;20037;-62
2023/03/10 04:08:07;;;;;;;1.90;0.63;;;10.70;99.90;;;;;;5074770;28;20036;-63
2023/03/10 04:10:33;;;;;;;2.38;0.60;;;10.70;99.90;;;;;;5073942;28;20036;-64
2023/03/10 04:12:58;;;;;;;3.27;0.60;;;10.80;99.90;;;;;;5076057;28;20040;-63
2023/03/10 04:15:24;;;;;;;3.07;0.63;;;10.70;99.90;;;;;;5076506;28;20078;-64
2023/03/10 04:17:50;;;;;;;1.30;0.65;;;10.70;99.90;;;;;;5073499;28;20043;-62
2023/03/10 04:20:16;;;;;;;1.10;0.60;;;10.60;99.90;;;;;;5072710;28;20417;-63
2023/03/10 04:22:42;;;;;;;2.80;0.70;;;10.60;99.90;;;;;;5073062;28;20027;-63
2023/03/10 04:25:08;;;;;;;3.07;0.70;;;10.60;99.90;;;;;;5074778;28;20021;-63
2023/03/10 04:27:34;;;;;;;1.92;0.73;;;10.70;99.90;;;;;;5073796;28;20024;-62
2023/03/10 04:30:00;;;;;;;2.35;0.73;;;10.80;99.90;;;;;;5072747;28;20036;-62
2023/03/10 04:32:26;;;;;;;1.57;1.07;;;10.80;99.90;;;;;;5072956;28;20032;-63
2023/03/10 04:34:51;;;;;;;1.55;0.65;;;10.70;99.90;;;;;;5070900;28;20150;-62
2023/03/10 04:37:17;;;;;;;1.73;0.60;;;10.60;99.90;;;;;;5072908;28;20465;-63
2023/03/10 04:39:42;;;;;;;2.70;0.63;;;10.60;99.90;;;;;;5072802;28;20043;-63
2023/03/10 04:42:08;;;;;;;1.83;0.80;;;10.60;99.90;;;;;;5072813;28;20404;-64
2023/03/10 04:44:34;;;;;;;3.28;0.60;;;10.60;99.90;;;;;;5072746;28;20036;-63
2023/03/10 04:47:00;;;;;;;0.90;0.40;;;10.50;99.90;;;;;;5090059;28;20119;-62
2023/03/10 04:49:26;;;;;;;2.17;0.60;;;10.50;99.90;;;;;;5092709;28;20076;-62
2023/03/10 04:51:52;;;;;;;3.65;0.70;;;10.50;99.90;;;;;;5092689;28;20056;-62
2023/03/10 04:54:17;;;;;;;4.73;0.90;;;10.40;99.90;;;;;;5092581;28;20035;-62
2023/03/10 04:56:43;;;;;;;1.83;0.80;;;10.50;99.90;;;;;;5093516;28;20027;-62
2023/03/10 04:59:08;;;;;;;2.70;1.20;;;10.40;99.90;;;;;;5095322;28;20040;-63
2023/03/10 05:01:34;;;;;;;3.20;0.70;;;10.40;99.90;;;;;;5096872;28;20028;-63
2023/03/10 05:04:01;;;;;;;2.80;0.70;;;10.40;99.90;;;;;;5096377;28;20496;-62
2023/03/10 05:06:27;;;;;;;2.10;0.82;;;10.40;99.90;;;;;;5098091;28;20028;-62
2023/03/10 05:08:52;;;;;;;2.90;0.80;;;10.40;99.90;;;;;;5096876;28;20153;-62
2023/03/10 05:11:18;;;;;;;4.87;0.80;;;10.30;99.90;;;;;;5096361;28;20131;-65
2023/03/10 05:13:44;;;;;;;3.08;0.88;;;10.30;99.90;;;;;;5083416;28;20023;-65
2023/03/10 05:16:15;;;;;;;1.97;0.60;;;10.30;99.90;;;;;;5075821;28;20040;-65
2023/03/10 05:18:40;;;;;;;2.80;0.70;;;10.20;99.90;;;;;;5075573;28;20107;-74
2023/03/10 05:21:06;;;;;;;2.43;0.70;;;10.20;99.90;;;;;;5075985;28;20048;-72
2023/03/10 05:23:31;;;;;;;3.20;1.10;;;10.30;99.90;;;;;;5075418;28;20397;-73
2023/03/10 05:25:57;;;;;;;2.33;0.80;;;10.40;99.90;;;;;;5074839;28;20032;-61
2023/03/10 05:28:23;;;;;;;2.93;0.90;;;10.40;99.90;;;;;;5075706;28;20028;-61
2023/03/10 05:30:49;;;;;;;3.25;0.98;;;10.40;99.90;;;;;;5079860;28;20040;-62
2023/03/10 05:33:14;;;;;;;4.95;1.90;;;10.50;99.90;;;;;;5089798;28;20032;-62
2023/03/10 05:35:40;;;;;;;2.92;1.10;;;10.50;99.90;;;;;;5091926;28;20024;-63
2023/03/10 05:38:06;;;;;;;5.25;1.50;;;10.50;99.90;;;;;;5094295;28;20035;-64
2023/03/10 05:40:31;;;;;;;2.13;0.70;;;10.60;99.90;;;;;;5094716;28;20017;-63
2023/03/10 05:42:57;;;;;;;4.30;0.83;;;10.60;99.90;;;;;;5075373;28;20071;-60
2023/03/10 05:45:22;;;;;;;2.80;0.60;;;10.60;99.90;;;;;;5073692;28;20100;-62
2023/03/10 05:47:48;;;;;;;4.07;0.87;;;10.60;99.90;;;;;;5075285;28;20033;-61
2023/03/10 05:50:14;;;;;;;4.10;1.20;;;10.60;99.90;;;;;;5074630;28;20021;-60
2023/03/10 05:52:42;;;;;;;5.47;1.08;;;10.60;99.90;;;;;;5077153;28;20443;-61
2023/03/10 05:55:12;;;;;;;3.13;0.88;;;10.60;99.90;;;;;;5084820;28;20033;-60
2023/03/10 05:57:38;;;;;;;3.08;0.95;;;10.70;99.90;;;;;;5075187;28;20039;-63
2023/03/10 06:00:06;;;;;;;5.70;1.80;;;10.70;99.90;;;;;;5074708;28;20020;-61
2023/03/10 06:02:31;;;;;;;2.17;0.80;;;10.80;99.90;;;;;;5073293;28;20034;-61
2023/03/10 06:04:57;;;;;;;6.70;0.80;;;10.90;99.90;;;;;;5074803;28;20032;-63
2023/03/10 06:07:22;;;;;;;2.97;0.90;;;10.90;99.90;;;;;;5076975;28;20020;-66
2023/03/10 06:09:48;;;;;;;4.97;0.90;;;10.90;99.90;;;;;;5074075;28;20472;-64
2023/03/10 06:12:13;;;;;;;3.43;0.73;;;11.00;99.90;;;;;;5099323;28;20050;-72
2023/03/10 06:14:39;;;;;;;3.87;0.97;;;11.00;99.90;;;;;;5089763;28;20056;-73
2023/03/10 06:17:04;;;;;;;3.10;0.67;;;10.90;99.90;;;;;;5093088;28;20297;-73
2023/03/10 06:19:30;;;;;;;2.63;0.60;;;10.80;99.90;;;;;;5095785;28;20107;-74
2023/03/10 06:21:56;;;;;;;2.63;0.80;;;10.90;99.90;;;;;;5093352;28;20032;-74
2023/03/10 06:24:21;;;;;;;5.57;1.03;;;10.80;99.90;;;;;;5086174;28;20270;-72
2023/03/10 06:26:47;;;;;;;3.50;0.80;;;10.80;99.90;;;;;;5075133;28;20481;-72
2023/03/10 06:29:12;;;;;;;2.97;1.37;;;10.70;99.90;;;;;;5074413;28;20556;-71
2023/03/10 06:31:38;;;;;;;2.13;1.00;;;10.60;99.90;;;;;;5079466;28;20070;-63
2023/03/10 06:34:03;;;;;;;3.33;1.00;;;10.70;99.90;;;;;;5072983;28;20093;-64
2023/03/10 06:36:32;;;;;;;3.27;0.77;;;10.70;99.90;;;;;;5073439;28;20074;-64
2023/03/10 06:38:58;;;;;;;3.33;0.80;;;10.70;99.90;;;;;;5081520;28;20032;-64
2023/03/10 06:41:24;;;;;;;3.90;0.80;;;10.60;99.90;;;;;;5089243;28;20078;-64
2023/03/10 06:43:50;;;;;;;3.42;0.65;;;10.60;99.90;;;;;;5085072;28;20032;-65
2023/03/10 06:46:16;;;;;;;2.60;0.70;;;10.60;99.90;;;;;;5091101;28;20032;-64
2023/03/10 06:48:42;;;;;;;4.35;0.75;;;10.50;99.90;;;;;;5080177;28;20033;-64
2023/03/10 06:51:14;;;;;;;2.25;0.50;;;10.50;99.90;;;;;;5072945;28;20041;-65
2023/03/10 06:53:40;;;;;;;1.52;0.40;;;10.50;99.90;;;;;;5072743;28;20020;-65
2023/03/10 06:56:09;;;;;;;2.63;0.60;;;10.60;99.90;;;;;;5073991;28;20025;-65
2023/03/10 06:58:36;;;;;;;2.65;0.80;;;10.50;99.90;;;;;;5075310;28;20328;-66
2023/03/10 07:01:03;;;;;;;1.42;0.50;;;10.50;99.90;;;;;;5073539;28;20159;-65
2023/03/10 07:03:28;;;;;;;2.75;1.10;;;10.40;99.90;;;;;;5073650;28;20028;-65
2023/03/10 07:05:57;;;;;;;1.85;0.70;;;10.50;99.90;;;;;;5087246;28;20051;-64
2023/03/10 07:08:22;;;;;;;1.73;1.05;;;10.50;99.90;;;;;;5094194;28;20024;-64
2023/03/10 07:10:48;;;;;;;1.67;0.60;;;10.70;99.90;;;;;;5093840;28;20039;-65
2023/03/10 07:13:15;;;;;;;1.80;0.50;;;10.80;99.90;;;;;;5085430;28;20024;-65
2023/03/10 07:15:42;;;;;;;1.67;0.60;;;10.90;99.90;;;;;;5073484;28;20028;-65
2023/03/10 07:18:07;;;;;;;2.38;0.40;;;11.00;99.90;;;;;;5073354;28;20017;-64
2023/03/10 07:20:33;;;;;;;1.30;0.60;;;11.10;99.90;;;;;;5073089;28;20381;-64
2023/03/10 07:22:59;;;;;;;2.80;0.75;;;11.10;99.90;;;;;;5072649;28;20040;-65
2023/03/10 07:25:25;;;;;;;3.07;0.60;;;10.90;99.90;;;;;;5073756;28;20378;-64
2023/03/10 07:27:50;;;;;;;2.03;0.70;;;10.80;99.90;;;;;;5073235;28;20385;-63
2023/03/10 07:30:16;;;;;;;3.63;0.80;;;10.60;99.90;;;;;;5073048;28;20389;-64
2023/03/10 07:32:42;;;;;;;5.72;1.00;;;10.40;99.90;;;;;;5073819;28;20530;-63
2023/03/10 07:35:08;;;;;;;6.60;1.17;;;10.30;99.90;;;;;;5073235;28;20036;-62
2023/03/10 07:37:37;;;;;;;3.22;1.10;;;10.20;99.90;;;;;;5073365;28;20028;-63
2023/03/10 07:40:04;;;;;;;4.75;0.70;;;10.10;99.90;;;;;;5076201;28;20088;-62
2023/03/10 07:42:30;;;;;;;4.30;0.80;;;9.80;99.90;;;;;;5077535;28;20021;-63
2023/03/10 07:44:55;;;;;;;2.37;0.83;;;9.50;99.90;;;;;;5077218;28;20039;-59
2023/03/10 07:47:21;;;;;;;3.90;0.90;;;9.30;99.90;;;;;;5081769;28;20031;-62
2023/03/10 07:49:46;;;;;;;3.87;1.00;;;9.10;99.90;;;;;;5076169;28;20033;-63
2023/03/10 07:52:17;;;;;;;5.47;1.10;;;9.10;99.90;;;;;;5074689;28;20031;-62
2023/03/10 07:54:43;;;;;;;8.27;1.27;;;9.10;99.90;;;;;;5073347;28;20423;-61
2023/03/10 07:57:09;;;;;;;7.43;1.05;;;9.10;99.90;;;;;;5072958;28;20066;-63
2023/03/10 07:59:35;;;;;;;6.95;1.40;;;9.00;99.90;;;;;;5072577;28;20025;-62
2023/03/10 08:02:01;;;;;;;4.22;0.82;;;9.00;99.90;;;;;;5070677;28;20032;-63
2023/03/10 08:04:26;;;;;;;6.30;1.30;;;8.90;99.90;;;;;;5070817;28;20512;-62
2023/03/10 08:06:52;;;;;;;5.63;1.00;;;8.90;99.90;;;;;;5071101;28;20024;-63
2023/03/10 08:09:17;;;;;;;10.27;1.33;;;8.90;99.90;;;;;;5071585;28;20371;-62
2023/03/10 08:11:43;;;;;;;8.93;1.73;;;8.90;99.90;;;;;;5071395;28;20032;-63
2023/03/10 08:14:08;;;;;;;8.70;1.63;;;8.90;99.90;;;;;;5072315;28;20016;-63
2023/03/10 08:16:34;;;;;;;5.37;1.27;;;8.90;99.90;;;;;;5072971;28;20032;-63
2023/03/10 08:18:59;;;;;;;10.97;2.23;;;9.10;99.90;;;;;;5072772;28;20024;-62
2023/03/10 08:21:25;;;;;;;8.40;1.20;;;9.20;99.90;;;;;;5072433;28;20028;-63
2023/03/10 08:23:50;;;;;;;8.13;1.47;;;9.20;99.90;;;;;;5071707;28;20338;-63
2023/03/10 08:26:17;;;;;;;8.93;2.00;;;9.20;99.90;;;;;;5074463;28;20028;-63
2023/03/10 08:28:43;;;;;;;12.68;1.52;;;9.20;99.90;;;;;;5074252;28;20056;-63
2023/03/10 08:31:14;;;;;;;8.90;1.48;;;9.20;99.90;;;;;;5073545;28;20489;-63
2023/03/10 08:33:41;;;;;;;9.07;2.17;;;9.30;99.90;;;;;;5074125;28;20085;-62
2023/03/10 08:36:19;;;;;;;8.25;1.98;;;9.30;99.90;;;;;;5076504;28;20017;-63
2023/03/10 08:38:45;;;;;;;7.82;1.38;;;9.30;99.90;;;;;;5076406;28;20107;-62
2023/03/10 08:41:27;;;;;;;12.30;2.40;;;9.40;99.90;;;;;;5076466;28;20035;-63
2023/03/10 08:43:55;;;;;;;8.85;1.23;;;9.40;99.90;;;;;;5076295;28;20075;-66
2023/03/10 08:46:23;;;;;;;6.70;1.42;;;9.40;99.90;;;;;;5076063;28;20052;-63
2023/03/10 08:48:49;;;;;;;10.75;2.03;;;9.50;99.90;;;;;;5076268;28;20032;-64
2023/03/10 08:51:15;;;;;;;7.90;1.63;;;9.50;99.90;;;;;;5075620;28;20032;-62
2023/03/10 08:53:41;;;;;;;6.85;1.10;;;9.40;99.90;;;;;;5076066;28;20025;-63
2023/03/10 08:56:07;;;;;;;7.90;1.20;;;9.40;99.90;;;;;;5083448;28;20033;-64
2023/03/10 08:58:33;;;;;;;4.53;1.27;;;9.40;99.90;;;;;;5078635;28;20024;-64
2023/03/10 09:00:58;;;;;;;6.13;1.35;;;9.40;99.90;;;;;;5077146;28;20031;-64
2023/03/10 09:03:25;;;;;;;8.07;1.42;;;9.40;99.90;;;;;;5076452;28;20107;-64
2023/03/10 09:05:50;;;;;;;3.45;0.98;;;9.30;99.90;;;;;;5075530;28;20036;-64
2023/03/10 09:08:16;;;;;;;3.13;0.93;;;9.40;99.90;;;;;;5075527;28;20017;-64
2023/03/10 09:10:43;;;;;;;9.43;1.45;;;9.30;99.90;;;;;;5075169;28;20817;-64
2023/03/10 09:13:09;;;;;;;5.18;1.30;;;9.30;99.90;;;;;;5075047;28;20044;-64
2023/03/10 09:15:40;;;;;;;7.25;1.30;;;9.30;99.90;;;;;;5075327;28;20020;-65
2023/03/10 09:18:14;;;;;;;9.18;1.30;;;9.30;99.90;;;;;;5075500;28;20132;-64
2023/03/10 09:20:41;;;;;;;5.05;1.27;;;9.40;99.90;;;;;;5074717;28;20476;-63
2023/03/10 09:23:09;;;;;;;6.72;1.20;;;9.50;99.90;;;;;;5075000;28;20021;-64
2023/03/10 09:25:34;;;;;;;4.80;1.10;;;9.50;99.90;;;;;;5074943;28;20032;-63
2023/03/10 09:28:00;;;;;;;5.53;1.20;;;9.60;99.90;;;;;;5075128;28;20028;-64
2023/03/10 09:30:26;;;;;;;4.20;1.00;;;9.60;99.90;;;;;;5073539;28;20075;-63
2023/03/10 09:32:52;;;;;;;4.50;1.05;;;9.70;99.90;;;;;;5075352;28;20021;-64
2023/03/10 09:35:18;;;;;;;6.35;1.17;;;9.70;99.90;;;;;;5074656;28;20024;-64
2023/03/10 09:37:43;;;;;;;8.48;1.63;;;9.80;99.90;;;;;;5075141;28;20462;-65
2023/03/10 09:40:18;;;;;;;4.17;1.20;;;9.80;99.90;;;;;;5075065;28;20021;-65
2023/03/10 09:42:50;;;;;;;5.43;1.48;;;9.80;99.90;;;;;;5074929;28;20056;-63
2023/03/10 09:45:21;;;;;;;7.35;1.23;;;9.80;99.90;;;;;;5074307;28;20032;-65
2023/03/10 09:48:18;;;;;;;8.23;1.20;;;9.80;99.90;;;;;;5074097;28;20028;-65
2023/03/10 09:50:47;;;;;;;5.53;1.00;;;9.80;99.90;;;;;;5074112;28;20397;-64
2023/03/10 09:53:37;;;;;;;13.75;1.42;;;9.80;99.90;;;;;;5074523;28;20385;-64
2023/03/10 09:56:11;;;;;;;7.57;1.48;;;9.90;99.90;;;;;;5074766;28;20059;-64
2023/03/10 09:59:08;;;;;;;10.65;1.20;;;9.90;99.90;;;;;;5074849;28;20044;-64
2023/03/10 10:01:34;;;;;;;7.13;1.30;;;9.90;99.90;;;;;;5056870;28;20028;-64
2023/03/10 10:04:08;;;;;;;4.90;0.93;;;9.90;99.90;;;;;;5074825;28;20469;-64
2023/03/10 10:06:37;;;;;;;5.97;1.30;;;9.90;99.90;;;;;;5074116;28;20024;-63
2023/03/10 10:09:06;;;;;;;10.23;1.35;;;9.90;99.90;;;;;;5074428;28;20032;-62
2023/03/10 10:11:33;;;;;;;4.95;0.88;;;10.00;99.90;;;;;;5074023;28;20059;-65
2023/03/10 10:14:14;;;;;;;5.65;1.10;;;10.00;99.90;;;;;;5074016;28;20024;-63
2023/03/10 10:16:54;;;;;;;4.85;1.40;;;10.00;99.90;;;;;;5074410;28;20029;-62
2023/03/10 10:19:23;;;;;;;6.10;1.27;;;10.00;99.90;;;;;;5074482;28;20024;-62
2023/03/10 10:22:11;;;;;;;5.75;1.23;;;10.00;99.90;;;;;;5075007;28;20059;-63
2023/03/10 10:24:37;;;;;;;5.38;1.20;;;9.90;99.90;;;;;;5074197;28;20024;-65
2023/03/10 10:27:03;;;;;;;4.10;1.08;;;9.90;99.90;;;;;;5074025;28;20023;-65
2023/03/10 10:29:35;;;;;;;11.33;1.70;;;9.80;99.90;;;;;;5074130;28;20482;-63
2023/03/10 10:32:12;;;;;;;6.28;1.33;;;9.90;99.90;;;;;;5074139;28;20067;-64
2023/03/10 10:34:39;;;;;;;;;;;9.90;99.90;;;;;;5074039;28;20027;-64
2023/03/10 10:37:23;;;;;;;7.32;1.60;;;10.00;99.90;;;;;;5073358;28;19950;-65
2023/03/10 10:39:51;;;;;;;5.68;1.50;;;10.00;99.90;;;;;;5073669;28;20020;-64
2023/03/10 10:42:24;;;;;;;5.85;1.40;;;10.00;99.90;;;;;;5073469;28;20461;-65
2023/03/10 10:44:57;;;;;;;8.73;1.52;;;9.90;99.90;;;;;;5073148;28;20040;-64
2023/03/10 10:47:30;;;;;;;8.98;1.48;;;10.00;99.90;;;;;;5074978;28;20020;-66
2023/03/10 10:50:17;;;;;;;8.55;1.65;;;10.00;99.90;;;;;;5074943;28;20442;-63
2023/03/10 10:52:47;;;;;;;7.65;1.40;;;10.10;99.90;;;;;;5074541;28;20426;-64
2023/03/10 10:55:33;;;;;;;8.00;1.50;;;10.10;99.90;;;;;;5075990;28;20016;-65
2023/03/10 10:58:02;;;;;;;7.88;1.60;;;10.10;99.90;;;;;;5075459;28;20135;-63
2023/03/10 11:00:30;;;;;;;7.90;1.60;;;10.10;99.90;;;;;;5073840;28;20025;-63
2023/03/10 11:02:56;;;;;;;6.75;1.58;;;10.00;99.90;;;;;;5073782;28;20070;-65
2023/03/10 11:05:30;;;;;;;7.17;1.30;;;10.00;99.90;;;;;;5073351;28;20429;-65
2023/03/10 11:08:14;;;;;;;10.65;2.17;;;10.10;99.90;;;;;;5073294;28;20349;-64
2023/03/10 11:10:40;;;;;;;8.18;1.45;;;10.20;99.90;;;;;;5071986;28;20469;-65
2023/03/10 11:13:20;;;;;;;3.65;0.82;;;10.20;99.90;;;;;;5073053;28;20031;-66
2023/03/10 11:16:20;;;;;;;6.15;1.15;;;10.40;99.90;;;;;;5073809;28;20025;-65
2023/03/10 11:18:57;;;;;;;5.80;1.17;;;10.50;99.90;;;;;;5073280;28;20021;-65
2023/03/10 11:21:27;;;;;;;7.25;1.63;;;10.50;99.90;;;;;;5073081;28;20024;-67
2023/03/10 11:23:56;;;;;;;5.38;1.20;;;10.40;99.90;;;;;;5073461;28;20025;-64
2023/03/10 11:26:39;;;;;;;7.95;1.40;;;10.50;99.90;;;;;;5073008;28;20361;-65
2023/03/10 11:29:29;;;;;;;6.38;1.40;;;10.40;99.90;;;;;;5073371;28;20089;-66
2023/03/10 11:32:21;;;;;;;6.75;1.30;;;10.40;99.90;;;;;;5073025;28;20024;-65
2023/03/10 11:34:50;;;;;;;10.30;2.55;;;10.40;99.90;;;;;;5054792;28;20440;-64
2023/03/10 11:37:45;;;;;;;4.78;1.23;;;10.40;99.90;;;;;;5072578;28;20025;-63
2023/03/10 11:40:38;;;;;;;4.00;1.42;;;10.40;99.90;;;;;;5072325;28;20037;-66
2023/03/10 11:43:38;;;;;;;5.10;1.40;;;10.40;99.90;;;;;;5073523;28;20043;-67
2023/03/10 11:46:43;;;;;;;6.53;1.42;;;10.50;99.90;;;;;;5073789;28;20021;-66
2023/03/10 11:49:16;;;;;;;3.53;1.27;;;10.50;99.90;;;;;;5050882;28;20028;-64
2023/03/10 11:51:54;;;;;;;9.18;1.42;;;10.40;99.90;;;;;;5069599;28;20128;-66
2023/03/10 11:54:28;;;;;;;9.45;1.77;;;10.50;99.90;;;;;;5073215;28;20025;-66
2023/03/10 11:56:54;;;;;;;5.60;1.40;;;10.50;99.90;;;;;;5073260;28;20025;-69
2023/03/10 11:59:23;;;;;;;8.25;1.50;;;10.50;99.90;;;;;;5081152;28;20419;-68
2023/03/10 12:02:11;;;;;;;8.88;1.40;;;10.40;99.90;;;;;;5084512;28;20040;-68
2023/03/10 12:04:44;;;;;;;8.43;1.45;;;10.50;99.90;;;;;;5072860;28;20036;-69
2023/03/10 12:07:16;;;;;;;6.35;1.55;;;10.40;99.90;;;;;;5074900;28;20043;-68
2023/03/10 12:09:50;;;;;;;6.97;1.33;;;10.40;99.90;;;;;;5075190;28;20035;-67
2023/03/10 12:12:25;;;;;;;3.63;1.00;;;10.40;99.90;;;;;;5076703;28;20027;-67
2023/03/10 12:14:52;;;;;;;7.43;1.60;;;10.40;99.90;;;;;;5076623;28;20414;-67
2023/03/10 12:17:18;;;;;;;9.68;2.55;;;10.40;99.90;;;;;;5074869;28;20111;-67
2023/03/10 12:20:17;;;;;;;7.00;1.73;;;10.30;99.90;;;;;;5080492;28;20028;-66
2023/03/10 12:22:57;;;;;;;8.60;1.13;;;10.20;99.90;;;;;;5076700;28;20366;-68
2023/03/10 12:25:29;;;;;;;5.53;1.00;;;10.20;99.90;;;;;;5076668;28;20025;-72
2023/03/10 12:28:16;;;;;;;3.53;0.98;;;10.10;99.90;;;;;;5076815;28;20024;-71
2023/03/10 12:31:04;;;;;;;3.42;0.80;;;10.10;99.90;;;;;;5075090;28;20021;-71
2023/03/10 12:33:30;;;;;;;4.20;1.15;;;10.10;99.90;;;;;;5088459;28;20040;-70
2023/03/10 12:36:20;;;;;;;3.20;0.77;;;10.00;99.90;;;;;;5084732;28;20058;-69
2023/03/10 12:39:29;;;;;;;3.20;0.70;;;10.00;99.90;;;;;;5076413;28;20052;-66
2023/03/10 12:42:22;;;;;;;2.33;1.02;;;10.00;99.90;;;;;;5074663;28;20024;-65
2023/03/10 12:45:06;;;;;;;2.63;0.73;;;9.80;99.90;;;;;;5076551;28;20056;-66
2023/03/10 12:47:43;;;;;;;2.97;0.63;;;9.80;99.90;;;;;;5076340;28;20457;-66
2023/03/10 12:50:28;;;;;;;3.63;0.80;;;9.70;99.90;;;;;;5075713;28;20020;-73
2023/03/10 12:53:19;;;;;;;3.78;0.63;;;9.60;99.90;;;;;;5076297;28;20449;-74
2023/03/10 12:56:24;;;;;;;2.38;0.60;;;9.50;99.90;;;;;;5054820;28;20028;-73
2023/03/10 12:59:16;;;;;;;1.85;0.60;;;9.40;99.90;;;;;;5068554;28;20036;-73
2023/03/10 13:01:47;;;;;;;2.35;0.60;;;9.30;99.90;;;;;;5076363;28;20527;-72
2023/03/10 13:04:18;;;;;;;1.25;0.60;;;9.30;99.90;;;;;;5079412;28;20029;-67